Time;durP1;ratioP1;P1;durP2;ratioP2;P2;SDS_P1;SDS_P2;PMS_P1;PMS_P2;Temp;Humidity;BMP_temperature;BMP_pressure;BME280_temperature;BME280_humidity;BME280_pressure;Samples;Min_cycle;Max_cycle;Signal;HPM_P1;HPM_P2
2022/11/20 00:02:00;;;;;;;;;;;;;;;17.90;52.74;100452.62;2381893;73;51635;-77
2022/11/20 00:05:02;;;;;;;;;;;;;;;17.93;52.67;100450.44;2382724;73;50720;-77
2022/11/20 00:08:03;;;;;;;;;;;;;;;18.02;52.47;100453.84;2410985;74;51517;-78
2022/11/20 00:11:10;;;;;;;;;;;;;;;18.06;52.38;100446.61;2382707;74;50682;-79
2022/11/20 00:14:11;;;;;;;;;;;;;;;18.07;52.36;100446.09;2381498;73;51829;-77
2022/11/20 00:17:13;;;;;;;;;;;;;;;18.07;52.34;100442.08;2382174;74;51571;-78
2022/11/20 00:20:14;;;;;;;;;;;;;;;18.03;52.40;100446.98;2373874;74;50717;-78
2022/11/20 00:23:16;;;;;;;;;;;;;;;17.99;52.50;100443.00;2369678;75;51622;-77
2022/11/20 00:26:19;;;;;;;;;;;;;;;17.95;52.56;100445.70;2341608;75;50085;-77
2022/11/20 00:29:20;;;;;;;;;;;;;;;17.91;52.64;100444.43;2341842;75;52570;-78
2022/11/20 00:32:22;;;;;;;;;;;;;;;17.81;52.85;100451.38;2370321;75;50661;-78
2022/11/20 00:35:23;;;;;;;;;;;;;;;17.77;52.95;100446.54;2342239;75;51615;-78
2022/11/20 00:38:25;;;;;;;;;;;;;;;17.76;52.96;100450.23;2341714;74;50924;-78
2022/11/20 00:41:27;;;;;;;;;;;;;;;17.82;52.84;100453.55;2342358;75;51534;-78
2022/11/20 00:44:29;;;;;;;;;;;;;;;17.88;52.71;100454.66;2374929;73;50768;-78
2022/11/20 00:47:30;;;;;;;;;;;;;;;17.87;52.74;100447.65;2370453;74;51670;-78
2022/11/20 00:50:32;;;;;;;;;;;;;;;17.86;52.75;100452.17;2343499;74;50719;-77
2022/11/20 00:53:33;;;;;;;;;;;;;;;17.88;52.72;100446.63;2343287;75;51508;-78
2022/11/20 00:56:35;;;;;;;;;;;;;;;17.95;52.59;100445.70;2371776;75;50699;-78
2022/11/20 00:59:36;;;;;;;;;;;;;;;17.95;52.60;100439.53;2343717;75;51453;-78
2022/11/20 01:02:38;;;;;;;;;;;;;;;17.98;52.55;100448.52;2343436;74;51551;-77
2022/11/20 01:05:40;;;;;;;;;;;;;;;18.04;52.41;100446.47;2370293;74;51477;-77
2022/11/20 01:08:41;;;;;;;;;;;;;;;18.07;52.32;100451.45;2370466;75;51531;-77
2022/11/20 01:11:43;;;;;;;;;;;;;;;18.05;52.38;100450.80;2370207;73;50279;-79
2022/11/20 01:14:45;;;;;;;;;;;;;;;18.03;52.39;100446.98;2383373;73;50181;-78
2022/11/20 01:17:46;;;;;;;;;;;;;;;17.98;52.50;100453.87;2412180;73;51413;-78
2022/11/20 01:20:48;;;;;;;;;;;;;;;17.91;52.62;100448.45;2412626;73;51636;-77
2022/11/20 01:23:50;;;;;;;;;;;;;;;17.87;52.73;100450.33;2382935;73;53519;-78
2022/11/20 01:26:51;;;;;;;;;;;;;;;17.82;52.78;100448.19;2414041;73;51767;-78
2022/11/20 01:29:53;;;;;;;;;;;;;;;17.81;52.81;100441.19;2384387;73;50049;-78
2022/11/20 01:32:55;;;;;;;;;;;;;;;17.81;52.82;100436.66;2384523;73;50330;-78
2022/11/20 01:35:58;;;;;;;;;;;;;;;17.90;52.65;100439.25;2413365;73;51465;-79
2022/11/20 01:39:01;;;;;;;;;;;;;;;17.90;52.62;100436.05;2383312;73;52655;-78
2022/11/20 01:45:40;;;;;;;;;;;;;;;18.00;52.41;100439.30;2413664;73;23333;-78
2022/11/20 01:52:18;;;;;;;;;;;;;;;18.01;52.39;100436.13;2275722;78;22209;-78
2022/11/20 01:55:21;;;;;;;;;;;;;;;17.91;52.59;100430.22;2240446;79;50719;-77
2022/11/20 01:58:24;;;;;;;;;;;;;;;17.89;52.67;100433.58;2279418;77;50805;-77
2022/11/20 02:01:25;;;;;;;;;;;;;;;17.82;52.74;100441.50;2255180;77;50444;-78
2022/11/20 02:04:27;;;;;;;;;;;;;;;17.77;52.87;100429.14;2204600;80;51199;-77
2022/11/20 02:07:29;;;;;;;;;;;;;;;17.74;52.98;100433.53;2228793;79;50736;-77
2022/11/20 02:10:30;;;;;;;;;;;;;;;17.75;52.97;100432.50;2228820;79;50407;-79
2022/11/20 02:13:44;;;;;;;;;;;;;;;17.75;52.92;100430.68;2222212;80;50262;-78
2022/11/20 02:16:47;;;;;;;;;;;;;;;17.79;52.83;100424.45;2247687;77;51723;-77
2022/11/20 02:19:49;;;;;;;;;;;;;;;17.84;52.74;100418.89;2301835;77;51549;-78
2022/11/20 02:23:01;;;;;;;;;;;;;;;17.85;52.67;100415.70;2302540;77;51547;-79
2022/11/20 02:26:03;;;;;;;;;;;;;;;17.88;52.60;100415.84;2302229;77;50492;-78
2022/11/20 02:29:04;;;;;;;;;;;;;;;17.89;52.62;100414.33;2279179;77;51740;-78
2022/11/20 02:32:06;;;;;;;;;;;;;;;17.96;52.50;100409.09;2279600;77;51536;-78
2022/11/20 02:35:12;;;;;;;;;;;;;;;17.99;52.40;100421.58;2355479;74;50288;-77
2022/11/20 02:38:14;;;;;;;;;;;;;;;17.99;52.42;100412.20;2350292;74;50725;-78
2022/11/20 02:41:15;;;;;;;;;;;;;;;18.00;52.37;100407.16;2353349;74;50727;-78
2022/11/20 02:44:17;;;;;;;;;;;;;;;17.98;52.40;100408.37;2265510;77;50790;-79
2022/11/20 02:47:18;;;;;;;;;;;;;;;17.91;52.57;100407.47;2252324;78;50486;-79
2022/11/20 02:50:20;;;;;;;;;;;;;;;17.88;52.61;100407.81;2338666;75;50744;-78
2022/11/20 02:53:22;;;;;;;;;;;;;;;17.84;52.70;100408.70;2314545;76;50197;-78
2022/11/20 02:56:23;;;;;;;;;;;;;;;17.78;52.82;100406.73;2315816;76;51572;-78
2022/11/20 02:59:25;;;;;;;;;;;;;;;17.76;52.84;100406.91;2337898;76;50641;-77
2022/11/20 03:02:28;;;;;;;;;;;;;;;17.75;52.88;100404.41;2337845;76;51590;-78
2022/11/20 03:05:30;;;;;;;;;;;;;;;17.76;52.87;100403.41;2315370;76;49921;-78
2022/11/20 03:08:31;;;;;;;;;;;;;;;17.78;52.82;100398.70;2338169;76;51436;-78
2022/11/20 03:11:33;;;;;;;;;;;;;;;17.89;52.63;100406.81;2338077;76;51540;-78
2022/11/20 03:14:34;;;;;;;;;;;;;;;17.86;52.64;100398.64;2318778;76;50103;-77
2022/11/20 03:17:36;;;;;;;;;;;;;;;17.96;52.43;100401.05;2316734;76;51071;-78
2022/11/20 03:20:37;;;;;;;;;;;;;;;17.95;52.41;100396.70;2315968;76;52218;-77
2022/11/20 03:23:39;;;;;;;;;;;;;;;17.92;52.46;100391.20;2315635;76;50077;-77
2022/11/20 03:26:41;;;;;;;;;;;;;;;17.87;52.52;100389.59;2338236;76;50214;-78
2022/11/20 03:29:42;;;;;;;;;;;;;;;17.87;52.54;100390.10;2341119;76;50178;-78
2022/11/20 03:32:44;;;;;;;;;;;;;;;17.79;52.73;100386.98;2337929;76;50735;-78
2022/11/20 03:35:46;;;;;;;;;;;;;;;17.76;52.78;100379.33;2337561;76;51446;-78
2022/11/20 03:38:47;;;;;;;;;;;;;;;17.74;52.81;100384.84;2316997;76;50725;-78
2022/11/20 03:41:49;;;;;;;;;;;;;;;17.69;52.95;100373.86;2318933;75;51687;-78
2022/11/20 03:44:51;;;;;;;;;;;;;;;17.66;53.02;100377.42;2318052;76;50082;-78
2022/11/20 03:47:52;;;;;;;;;;;;;;;17.72;52.91;100380.69;2338794;76;50720;-78
2022/11/20 03:50:55;;;;;;;;;;;;;;;17.77;52.73;100389.00;2338662;75;50337;-78
2022/11/20 03:53:57;;;;;;;;;;;;;;;17.79;52.75;100388.31;2290957;76;52690;-78
2022/11/20 03:56:59;;;;;;;;;;;;;;;17.80;52.70;100386.84;2316737;76;50726;-78
2022/11/20 04:00:00;;;;;;;;;;;;;;;17.86;52.58;100391.95;2338235;76;51441;-78
2022/11/20 04:03:02;;;;;;;;;;;;;;;17.89;52.56;100384.06;2315928;76;52832;-77
2022/11/20 04:06:04;;;;;;;;;;;;;;;17.96;52.39;100388.49;2315778;76;52531;-78
2022/11/20 04:09:06;;;;;;;;;;;;;;;17.97;52.29;100379.44;2338130;76;50928;-77
2022/11/20 04:12:07;;;;;;;;;;;;;;;17.96;52.36;100384.99;2338394;76;51538;-78
2022/11/20 04:15:09;;;;;;;;;;;;;;;17.96;52.31;100381.80;2338554;76;51438;-77
2022/11/20 04:18:11;;;;;;;;;;;;;;;17.90;52.43;100370.48;2314611;76;51736;-77
2022/11/20 04:21:12;;;;;;;;;;;;;;;17.87;52.52;100377.55;2315995;76;51515;-78
2022/11/20 04:24:14;;;;;;;;;;;;;;;17.81;52.63;100374.28;2338042;76;51410;-78
2022/11/20 04:27:15;;;;;;;;;;;;;;;17.72;52.81;100382.03;2338023;76;51385;-77
2022/11/20 04:30:17;;;;;;;;;;;;;;;17.72;52.82;100384.70;2290576;76;50896;-78
2022/11/20 04:33:18;;;;;;;;;;;;;;;17.68;52.93;100386.93;2315735;76;50252;-78
2022/11/20 04:36:21;;;;;;;;;;;;;;;17.71;52.88;100380.38;2338152;76;50179;-78
2022/11/20 04:39:22;;;;;;;;;;;;;;;17.78;52.72;100374.62;2338147;76;51525;-78
2022/11/20 04:42:30;;;;;;;;;;;;;;;17.79;52.68;100374.94;2315425;75;52649;-78
2022/11/20 04:45:32;;;;;;;;;;;;;;;17.81;52.67;100375.10;2313922;76;50242;-78
2022/11/20 04:48:33;;;;;;;;;;;;;;;17.89;52.50;100372.02;2338169;76;50500;-78
2022/11/20 04:51:35;;;;;;;;;;;;;;;17.86;52.50;100367.87;2315996;76;51534;-78
2022/11/20 04:54:36;;;;;;;;;;;;;;;17.91;52.36;100372.16;2290157;76;50110;-78
2022/11/20 04:57:38;;;;;;;;;;;;;;;17.84;52.47;100369.37;2316198;76;50628;-77
2022/11/20 05:00:39;;;;;;;;;;;;;;;17.81;52.54;100360.90;2338126;76;51413;-78
2022/11/20 05:03:41;;;;;;;;;;;;;;;17.75;52.65;100361.59;2337984;75;50693;-77
2022/11/20 05:06:43;;;;;;;;;;;;;;;17.71;52.76;100357.12;2314803;76;50082;-78
2022/11/20 05:09:44;;;;;;;;;;;;;;;17.69;52.82;100354.31;2315847;76;50742;-78
2022/11/20 05:12:46;;;;;;;;;;;;;;;17.60;52.99;100346.89;2338905;76;51655;-79
2022/11/20 05:15:48;;;;;;;;;;;;;;;17.66;52.94;100342.64;2313759;76;51333;-78
2022/11/20 05:18:49;;;;;;;;;;;;;;;17.69;52.80;100343.61;2291571;76;50079;-78
2022/11/20 05:21:51;;;;;;;;;;;;;;;17.71;52.75;100337.57;2317087;76;51499;-78
2022/11/20 05:24:52;;;;;;;;;;;;;;;17.74;52.70;100335.86;2339059;76;51524;-78
2022/11/20 05:27:54;;;;;;;;;;;;;;;17.79;52.56;100326.77;2339408;76;50372;-79
2022/11/20 05:30:56;;;;;;;;;;;;;;;17.87;52.40;100327.20;2316948;76;50068;-78
2022/11/20 05:33:57;;;;;;;;;;;;;;;17.85;52.44;100323.36;2316919;76;50667;-78
2022/11/20 05:36:59;;;;;;;;;;;;;;;17.90;52.35;100333.00;2339132;76;50356;-78
2022/11/20 05:40:00;;;;;;;;;;;;;;;17.95;52.24;100327.09;2338953;75;50321;-78
2022/11/20 05:43:02;;;;;;;;;;;;;;;17.96;52.21;100336.81;2291988;76;50109;-78
2022/11/20 05:46:04;;;;;;;;;;;;;;;17.90;52.35;100330.33;2328007;75;51559;-78
2022/11/20 05:49:05;;;;;;;;;;;;;;;17.87;52.39;100334.72;2339610;76;50750;-78
2022/11/20 05:52:07;;;;;;;;;;;;;;;17.80;52.53;100332.45;2339733;76;50765;-78
2022/11/20 05:55:08;;;;;;;;;;;;;;;17.75;52.61;100326.80;2291983;76;52840;-78
2022/11/20 05:58:10;;;;;;;;;;;;;;;17.72;52.69;100335.20;2317669;76;50741;-78
2022/11/20 06:01:13;;;;;;;;;;;;;;;17.71;52.65;100326.34;2317328;76;51546;-78
2022/11/20 06:04:15;;;;;;;;;;;;;;;17.66;52.83;100330.60;2339572;76;51528;-78
2022/11/20 06:07:16;;;;;;;;;;;;;;;17.72;52.70;100331.19;2292163;76;49625;-78
2022/11/20 06:10:18;;;;;;;;;;;;;;;17.73;52.69;100330.19;2340072;76;50305;-79
2022/11/20 06:13:20;;;;;;;;;;;;;;;17.80;52.50;100327.10;2341176;76;50720;-78
2022/11/20 06:16:21;;;;;;;;;;;;;;;17.84;52.42;100321.20;2341186;75;50751;-79
2022/11/20 06:19:23;;;;;;;;;;;;;;;17.89;52.29;100327.34;2318541;75;49367;-78
2022/11/20 06:22:24;;;;;;;;;;;;;;;17.86;52.32;100318.35;2317183;76;50752;-78
2022/11/20 06:25:26;;;;;;;;;;;;;;;17.82;52.41;100327.75;2338878;75;51448;-78
2022/11/20 06:28:27;;;;;;;;;;;;;;;17.78;52.49;100317.91;2339291;76;50493;-78
2022/11/20 06:31:29;;;;;;;;;;;;;;;17.76;52.54;100323.12;2291531;76;50926;-78
2022/11/20 06:34:31;;;;;;;;;;;;;;;17.67;52.73;100321.03;2339529;75;51308;-78
2022/11/20 06:37:32;;;;;;;;;;;;;;;17.61;52.84;100322.61;2317175;76;50379;-77
2022/11/20 06:40:34;;;;;;;;;;;;;;;17.62;52.85;100324.77;2316925;76;50400;-78
2022/11/20 06:43:35;;;;;;;;;;;;;;;17.60;52.87;100319.63;2291431;75;49543;-78
2022/11/20 06:46:37;;;;;;;;;;;;;;;17.63;52.81;100321.09;2320318;76;50261;-78
2022/11/20 06:49:39;;;;;;;;;;;;;;;17.62;52.84;100322.95;2339234;75;49863;-78
2022/11/20 06:52:40;;;;;;;;;;;;;;;17.69;52.69;100312.83;2317168;76;50732;-78
2022/11/20 06:55:45;;;;;;;;;;;;;;;17.72;52.63;100309.78;2291111;76;52604;-78
2022/11/20 06:58:46;;;;;;;;;;;;;;;17.75;52.55;100310.74;2339146;76;51531;-79
2022/11/20 07:01:48;;;;;;;;;;;;;;;17.82;52.38;100313.86;2338477;76;51598;-77
2022/11/20 07:04:50;;;;;;;;;;;;;;;17.84;52.35;100314.51;2338629;75;50260;-78
2022/11/20 07:07:51;;;;;;;;;;;;;;;17.92;52.20;100317.59;2290634;76;49656;-77
2022/11/20 07:10:53;;;;;;;;;;;;;;;17.87;52.27;100316.50;2316212;76;50406;-77
2022/11/20 07:13:54;;;;;;;;;;;;;;;17.92;52.16;100318.93;2317257;76;50707;-77
2022/11/20 07:16:56;;;;;;;;;;;;;;;17.84;52.27;100313.17;2338228;76;51448;-77
2022/11/20 07:19:57;;;;;;;;;;;;;;;17.79;52.40;100310.22;2314649;76;50097;-77
2022/11/20 07:22:59;;;;;;;;;;;;;;;17.77;52.44;100306.05;2338373;76;51506;-77
2022/11/20 07:26:07;;;;;;;;;;;;;;;17.70;52.60;100306.45;2338012;76;51440;-77
2022/11/20 07:29:09;;;;;;;;;;;;;;;17.66;52.69;100308.69;2338363;75;51565;-77
2022/11/20 07:32:10;;;;;;;;;;;;;;;17.62;52.75;100308.23;2290680;76;49581;-77
2022/11/20 07:35:12;;;;;;;;;;;;;;;17.68;52.66;100318.70;2316027;76;50657;-77
2022/11/20 07:38:13;;;;;;;;;;;;;;;17.70;52.61;100319.35;2337926;75;51523;-77
2022/11/20 07:41:15;;;;;;;;;;;;;;;17.77;52.46;100312.22;2315752;76;51616;-77
2022/11/20 07:44:17;;;;;;;;;;;;;;;17.79;52.42;100317.39;2316258;76;50994;-77
2022/11/20 07:47:18;;;;;;;;;;;;;;;17.82;52.38;100317.05;2343179;74;52167;-77
2022/11/20 07:50:20;;;;;;;;;;;;;;;17.84;52.28;100309.16;2343095;74;50314;-77
2022/11/20 07:53:22;;;;;;;;;;;;;;;17.82;52.35;100311.70;2340586;74;51710;-77
2022/11/20 07:56:23;;;;;;;;;;;;;;;17.76;52.45;100306.55;2317068;76;52435;-78
2022/11/20 07:59:25;;;;;;;;;;;;;;;17.76;52.44;100303.88;2343800;75;52304;-77
2022/11/20 08:02:26;;;;;;;;;;;;;;;17.70;52.56;100301.10;2344200;75;50700;-77
2022/11/20 08:05:28;;;;;;;;;;;;;;;17.61;52.73;100302.55;2340066;76;50742;-77
2022/11/20 08:08:30;;;;;;;;;;;;;;;17.66;52.64;100298.50;2316685;74;50206;-78
2022/11/20 08:14:51;;;;;;;;;;;;;;;17.57;52.85;100302.61;2320467;76;22531;-78
2022/11/20 08:17:52;;;;;;;;;;;;;;;17.64;52.71;100296.81;2316447;76;50122;-78
2022/11/20 08:20:54;;;;;;;;;;;;;;;17.64;52.72;100288.78;2316756;75;51245;-77
2022/11/20 08:23:55;;;;;;;;;;;;;;;17.71;52.56;100301.44;2316047;76;50720;-78
2022/11/20 08:27:00;;;;;;;;;;;;;;;17.72;52.53;100290.53;2316270;76;51621;-78
2022/11/20 08:30:02;;;;;;;;;;;;;;;17.78;52.41;100288.98;2316810;76;50752;-78
2022/11/20 08:33:04;;;;;;;;;;;;;;;17.79;52.38;100292.83;2291157;76;52395;-78
2022/11/20 08:36:06;;;;;;;;;;;;;;;17.87;52.25;100291.89;2316469;76;50342;-78
2022/11/20 08:39:08;;;;;;;;;;;;;;;17.86;52.23;100290.77;2316479;76;50769;-78
2022/11/20 08:42:09;;;;;;;;;;;;;;;17.83;52.30;100289.29;2338997;74;51564;-78
2022/11/20 08:45:11;;;;;;;;;;;;;;;17.82;52.30;100286.27;2287161;76;50098;-78
2022/11/20 08:48:12;;;;;;;;;;;;;;;17.76;52.43;100295.03;2316116;76;51626;-78
2022/11/20 08:51:14;;;;;;;;;;;;;;;17.69;52.59;100286.08;2338254;76;51505;-78
2022/11/20 08:54:19;;;;;;;;;;;;;;;17.68;52.59;100281.75;2338027;76;50397;-77
2022/11/20 08:57:19;;;;;;;;;;;;;;;17.60;52.74;100274.14;2316712;76;22486;-78
2022/11/20 09:00:20;;;;;;;;;;;;;;;17.62;52.69;100284.16;2338536;76;50752;-78
2022/11/20 09:03:22;;;;;;;;;;;;;;;17.61;52.76;100274.96;2338126;76;51667;-78
2022/11/20 09:06:24;;;;;;;;;;;;;;;17.71;52.52;100277.36;2338129;76;50710;-78
2022/11/20 09:09:25;;;;;;;;;;;;;;;17.73;52.53;100276.67;2314513;76;51841;-78
2022/11/20 09:12:27;;;;;;;;;;;;;;;17.78;52.39;100280.45;2316410;76;50422;-78
2022/11/20 09:15:28;;;;;;;;;;;;;;;17.83;52.28;100278.58;2338582;76;50933;-78
2022/11/20 09:18:31;;;;;;;;;;;;;;;17.78;52.35;100282.30;2315701;76;50726;-78
2022/11/20 09:21:33;;;;;;;;;;;;;;;17.75;52.38;100283.98;2337705;76;52255;-78
2022/11/20 09:24:34;;;;;;;;;;;;;;;17.75;52.42;100285.32;2313080;76;50273;-78
2022/11/20 09:27:36;;;;;;;;;;;;;;;17.67;52.56;100288.92;2337937;76;50260;-77
2022/11/20 09:30:37;;;;;;;;;;;;;;;17.66;52.58;100287.80;2337986;76;50683;-78
2022/11/20 09:33:39;;;;;;;;;;;;;;;17.64;52.62;100294.14;2337760;76;50640;-78
2022/11/20 09:36:41;;;;;;;;;;;;;;;17.62;52.62;100290.84;2316168;76;51524;-78
2022/11/20 09:39:43;;;;;;;;;;;;;;;17.59;52.71;100290.36;2338134;76;51500;-78
2022/11/20 09:42:45;;;;;;;;;;;;;;;17.57;52.76;100289.23;2317364;75;50657;-78
2022/11/20 09:46:01;;;;;;;;;;;;;;;17.64;52.61;100286.62;2339415;76;50248;-78
2022/11/20 09:49:13;;;;;;;;;;;;;;;17.67;52.58;100284.09;2340402;76;51359;-78
2022/11/20 09:52:16;;;;;;;;;;;;;;;17.74;52.40;100282.34;2328795;75;50709;-78
2022/11/20 09:55:18;;;;;;;;;;;;;;;17.76;52.38;100281.65;2340200;74;50717;-77
2022/11/20 09:58:35;;;;;;;;;;;;;;;17.80;52.26;100285.63;2316808;76;52500;-78
2022/11/20 10:01:38;;;;;;;;;;;;;;;17.82;52.23;100272.38;2340208;76;51586;-78
2022/11/20 10:04:39;;;;;;;;;;;;;;;17.87;52.15;100273.67;2340180;76;51555;-78
2022/11/20 10:07:45;;;;;;;;;;;;;;;17.89;52.06;100270.31;2316953;75;49549;-78
2022/11/20 10:10:57;;;;;;;;;;;;;;;17.80;52.25;100266.89;2316892;76;49430;-77
2022/11/20 10:14:00;;;;;;;;;;;;;;;17.78;52.28;100263.56;2339494;75;50683;-78
2022/11/20 10:17:06;;;;;;;;;;;;;;;17.71;52.49;100263.98;2338235;76;51535;-78
2022/11/20 10:20:22;;;;;;;;;;;;;;;17.71;52.42;100266.14;2338312;76;50546;-78
2022/11/20 10:23:34;;;;;;;;;;;;;;;17.68;52.51;100267.03;2315523;76;49603;-78
2022/11/20 10:26:54;;;;;;;;;;;;;;;17.63;52.58;100267.59;2337997;76;50413;-77
2022/11/20 10:30:12;;;;;;;;;;;;;;;17.63;52.58;100257.71;2337838;76;50439;-77
2022/11/20 10:33:17;;;;;;;;;;;;;;;17.68;52.50;100256.33;2337913;76;50416;-77
2022/11/20 10:36:26;;;;;;;;;;;;;;;17.68;52.51;100263.84;2315622;76;51700;-77
2022/11/20 10:39:48;;;;;;;;;;;;;;;17.76;52.33;100265.59;2337914;76;51506;-77
2022/11/20 10:42:51;;;;;;;;;;;;;;;17.78;52.28;100260.89;2339009;76;50685;-77
2022/11/20 10:46:02;;;;;;;;;;;;;;;17.82;52.18;100251.48;2339179;76;50316;-77
2022/11/20 10:49:05;;;;;;;;;;;;;;;17.82;52.16;100250.97;2315350;76;50152;-77
2022/11/20 10:52:08;;;;;;;;;;;;;;;17.76;52.28;100237.49;2338535;76;51710;-77
2022/11/20 10:55:14;;;;;;;;;;;;;;;17.72;52.37;100245.56;2338350;76;51525;-77
2022/11/20 10:58:23;;;;;;;;;;;;;;;17.69;52.45;100238.73;2338131;76;51542;-78
2022/11/20 11:01:26;;;;;;;;;;;;;;;17.60;52.67;100233.19;2338887;76;51657;-78
2022/11/20 11:04:38;;;;;;;;;;;;;;;17.59;52.69;100232.84;2315965;75;50578;-78
2022/11/20 11:07:40;;;;;;;;;;;;;;;17.61;52.67;100245.02;2338877;76;50458;-78
2022/11/20 11:10:46;;;;;;;;;;;;;;;17.60;52.73;100237.20;2339502;76;50635;-78
2022/11/20 11:13:47;;;;;;;;;;;;;;;17.61;52.72;100230.30;2340228;75;51498;-81
2022/11/20 11:16:53;;;;;;;;;;;;;;;17.72;52.46;100238.88;2316951;76;52905;-78
2022/11/20 11:19:58;;;;;;;;;;;;;;;17.73;52.40;100232.01;2316765;75;49620;-79
2022/11/20 11:23:00;;;;;;;;;;;;;;;17.80;52.26;100236.97;2340204;76;50789;-79
2022/11/20 11:26:02;;;;;;;;;;;;;;;17.83;52.20;100233.09;2340046;76;50022;-79
2022/11/20 11:29:04;;;;;;;;;;;;;;;17.85;52.12;100225.67;2317335;76;51824;-79
2022/11/20 11:32:10;;;;;;;;;;;;;;;17.83;52.16;100221.05;2340020;76;51535;-79
2022/11/20 11:35:22;;;;;;;;;;;;;;;17.80;52.24;100226.75;2339144;76;50364;-79
2022/11/20 11:38:25;;;;;;;;;;;;;;;17.78;52.28;100226.10;2339014;75;50771;-79
2022/11/20 11:41:31;;;;;;;;;;;;;;;17.73;52.38;100221.30;2307300;76;50950;-78
2022/11/20 11:47:52;;;;;;;;;;;;;;;17.66;52.56;100222.23;2340206;76;22967;-80
2022/11/20 11:50:54;;;;;;;;;;;;;;;17.62;52.60;100215.94;2339615;76;50825;-78
2022/11/20 11:53:55;;;;;;;;;;;;;;;17.62;52.64;100217.27;2291273;76;50981;-79
2022/11/20 11:56:59;;;;;;;;;;;;;;;17.65;52.61;100210.72;2317282;76;51544;-78
2022/11/20 12:00:05;;;;;;;;;;;;;;;17.68;52.56;100210.84;2338928;76;50779;-78
2022/11/20 12:03:11;;;;;;;;;;;;;;;17.74;52.42;100208.75;2339257;76;51710;-79
2022/11/20 12:06:16;;;;;;;;;;;;;;;17.79;52.25;100205.86;2317327;76;51528;-79
2022/11/20 12:09:17;;;;;;;;;;;;;;;17.82;52.22;100207.32;2339850;76;51536;-79
2022/11/20 12:12:20;;;;;;;;;;;;;;;17.79;52.21;100200.98;2340135;76;50387;-78
2022/11/20 12:15:32;;;;;;;;;;;;;;;17.72;52.36;100202.75;2339895;76;51499;-78
2022/11/20 12:18:33;;;;;;;;;;;;;;;17.69;52.46;100202.62;2339839;76;51279;-79
2022/11/20 12:21:36;;;;;;;;;;;;;;;17.62;52.57;100194.53;2338741;76;50881;-78
2022/11/20 12:24:39;;;;;;;;;;;;;;;17.63;52.54;100198.85;2293627;75;50825;-77
2022/11/20 12:28:01;;;;;;;;;;;;;;;17.64;52.50;100188.97;2337867;76;50514;-78
2022/11/20 12:31:07;;;;;;;;;;;;;;;17.57;52.70;100186.72;2316194;76;52556;-79
2022/11/20 12:34:16;;;;;;;;;;;;;;;17.57;52.69;100185.38;2339304;76;51618;-78
2022/11/20 12:37:19;;;;;;;;;;;;;;;17.65;52.53;100186.64;2339099;76;50775;-78
2022/11/20 12:40:23;;;;;;;;;;;;;;;17.67;52.48;100186.43;2337459;76;50938;-78
2022/11/20 12:46:45;;;;;;;;;;;;;;;17.81;52.18;100181.59;2338809;76;23204;-78
2022/11/20 12:49:55;;;;;;;;;;;;;;;17.79;52.17;100180.91;2338525;76;50384;-78
2022/11/20 12:52:57;;;;;;;;;;;;;;;17.82;52.07;100176.55;2338269;76;51609;-78
2022/11/20 12:56:06;;;;;;;;;;;;;;;17.79;52.17;100176.90;2314915;76;49829;-78
2022/11/20 12:59:26;;;;;;;;;;;;;;;17.71;52.29;100175.16;2338491;76;51492;-78
2022/11/20 13:02:32;;;;;;;;;;;;;;;17.69;52.39;100167.02;2339379;76;50713;-79
2022/11/20 13:05:52;;;;;;;;;;;;;;;17.65;52.46;100167.91;2338960;76;50814;-79
2022/11/20 13:08:55;;;;;;;;;;;;;;;17.59;52.55;100165.45;2339706;76;50757;-79
2022/11/20 13:11:59;;;;;;;;;;;;;;;17.59;52.56;100169.98;2318591;76;51662;-79
2022/11/20 13:15:11;;;;;;;;;;;;;;;17.55;52.67;100162.84;2339383;76;51744;-79
2022/11/20 13:18:13;;;;;;;;;;;;;;;17.54;52.68;100154.48;2337206;76;51572;-79
2022/11/20 13:21:18;;;;;;;;;;;;;;;17.66;52.46;100159.37;2314252;76;50101;-78
2022/11/20 13:24:26;;;;;;;;;;;;;;;17.68;52.39;100153.33;2337641;76;51407;-78
2022/11/20 13:27:25;;;;;;;;;;;;;;;17.74;52.27;100152.55;2337169;76;22947;-78
2022/11/20 13:30:27;;;;;;;;;;;;;;;17.76;52.23;100151.86;2337646;76;50795;-78
2022/11/20 13:33:36;;;;;;;;;;;;;;;17.77;52.17;100148.16;2313778;76;50256;-78
2022/11/20 13:36:38;;;;;;;;;;;;;;;17.73;52.21;100142.37;2336238;76;51584;-78
2022/11/20 13:39:39;;;;;;;;;;;;;;;17.73;52.20;100141.03;2315409;76;51454;-78
2022/11/20 13:42:49;;;;;;;;;;;;;;;17.68;52.30;100143.44;2338637;76;52171;-78
2022/11/20 13:46:00;;;;;;;;;;;;;;;17.67;52.37;100143.62;2211479;79;49759;-78
2022/11/20 13:49:03;;;;;;;;;;;;;;;17.61;52.47;100140.69;2207804;79;50802;-78
2022/11/20 13:52:06;;;;;;;;;;;;;;;17.61;52.42;100138.01;2231266;79;50822;-79
2022/11/20 13:55:15;;;;;;;;;;;;;;;17.53;52.66;100137.30;2227557;79;50822;-79
2022/11/20 13:58:18;;;;;;;;;;;;;;;17.52;52.68;100133.80;2207284;79;51914;-79
2022/11/20 14:01:26;;;;;;;;;;;;;;;17.52;52.70;100140.50;2231479;79;50465;-79
2022/11/20 14:04:32;;;;;;;;;;;;;;;17.56;52.62;100140.42;2231170;78;50628;-77
2022/11/20 14:07:40;;;;;;;;;;;;;;;17.64;52.42;100142.97;2231581;79;50891;-78
2022/11/20 14:10:42;;;;;;;;;;;;;;;17.68;52.39;100143.44;2231502;79;50817;-78
2022/11/20 14:13:56;;;;;;;;;;;;;;;17.72;52.23;100139.87;2203170;79;50645;-79
2022/11/20 14:17:07;;;;;;;;;;;;;;;17.69;52.30;100141.59;2244523;79;51465;-79
2022/11/20 14:20:10;;;;;;;;;;;;;;;17.71;52.25;100143.06;2244805;79;50699;-79
2022/11/20 14:23:12;;;;;;;;;;;;;;;17.63;52.39;100141.33;2300953;75;51495;-78
2022/11/20 14:26:15;;;;;;;;;;;;;;;17.59;52.45;100146.72;2337550;76;50333;-78
2022/11/20 14:29:18;;;;;;;;;;;;;;;17.57;52.52;100137.23;2336440;76;51536;-79
2022/11/20 14:32:20;;;;;;;;;;;;;;;17.59;52.43;100141.38;2337520;76;50733;-78
2022/11/20 14:35:25;;;;;;;;;;;;;;;17.56;52.48;100140.94;2315188;76;51160;-78
2022/11/20 14:38:31;;;;;;;;;;;;;;;17.51;52.58;100139.33;2315854;76;50262;-78
2022/11/20 14:41:33;;;;;;;;;;;;;;;17.49;52.66;100134.67;2338261;75;51593;-78
2022/11/20 14:44:35;;;;;;;;;;;;;;;17.57;52.47;100146.11;2316511;76;51527;-78
2022/11/20 14:47:36;;;;;;;;;;;;;;;17.66;52.30;100145.98;2313425;75;51077;-78
2022/11/20 14:50:38;;;;;;;;;;;;;;;17.70;52.19;100142.75;2337867;76;52379;-78
2022/11/20 14:53:40;;;;;;;;;;;;;;;17.73;52.09;100138.87;2337558;75;51723;-78
2022/11/20 14:56:42;;;;;;;;;;;;;;;17.73;52.09;100144.22;2315728;76;51330;-78
2022/11/20 14:59:43;;;;;;;;;;;;;;;17.73;52.05;100138.87;2314479;76;51050;-79
2022/11/20 15:02:45;;;;;;;;;;;;;;;17.73;52.08;100144.22;2337777;76;52456;-79
2022/11/20 15:05:48;;;;;;;;;;;;;;;17.68;52.17;100141.28;2315464;76;50240;-78
2022/11/20 15:08:52;;;;;;;;;;;;;;;17.64;52.20;100144.83;2337518;76;51357;-77
2022/11/20 15:12:03;;;;;;;;;;;;;;;17.59;52.29;100148.06;2314687;76;51021;-78
2022/11/20 15:15:05;;;;;;;;;;;;;;;17.50;52.51;100139.02;2338960;76;50696;-78
2022/11/20 15:18:08;;;;;;;;;;;;;;;17.47;52.56;100134.88;2340046;76;50533;-78
2022/11/20 15:21:24;;;;;;;;;;;;;;;17.46;52.67;100137.73;2339979;75;50321;-78
2022/11/20 15:24:23;;;;;;;;;;;;;;;17.47;52.61;100130.02;2339317;74;22313;-78
2022/11/20 15:27:24;;;;;;;;;;;;;;;17.53;52.50;100125.27;2343125;75;51514;-78
2022/11/20 15:30:26;;;;;;;;;;;;;;;17.60;52.33;100120.83;2340130;74;51526;-78
2022/11/20 15:33:27;;;;;;;;;;;;;;;17.67;52.15;100118.20;2340008;76;50842;-78
2022/11/20 15:36:29;;;;;;;;;;;;;;;17.70;52.08;100123.17;2316279;76;49460;-78
2022/11/20 15:39:31;;;;;;;;;;;;;;;17.71;52.00;100115.48;2343229;75;51571;-78
2022/11/20 15:42:32;;;;;;;;;;;;;;;17.72;52.02;100121.14;2326287;76;50466;-78
2022/11/20 15:45:36;;;;;;;;;;;;;;;17.69;52.07;100121.52;2338419;76;51605;-78
2022/11/20 15:48:39;;;;;;;;;;;;;;;17.62;52.17;100119.63;2316057;76;51064;-78
2022/11/20 15:51:41;;;;;;;;;;;;;;;17.59;52.26;100115.95;2338183;76;50920;-78
2022/11/20 15:54:43;;;;;;;;;;;;;;;17.50;52.45;100112.28;2337287;76;51472;-77
2022/11/20 15:57:45;;;;;;;;;;;;;;;17.49;52.47;100113.27;2337592;76;50421;-77